Time;durP1;ratioP1;P1;durP2;ratioP2;P2;SDS_P1;SDS_P2;PMS_P1;PMS_P2;Temp;Humidity;BMP_temperature;BMP_pressure;BME280_temperature;BME280_humidity;BME280_pressure;Samples;Min_cycle;Max_cycle;Signal;HPM_P1;HPM_P2
2022/12/22 05:04:25;;;;;;;312.08;158.20;;;;;;;0.99;80.04;94253.67;1836061;77;26269;-44
2022/12/22 05:06:52;;;;;;;302.45;154.25;;;;;;;0.95;80.13;94266.48;1808485;78;21049;-44
2022/12/22 05:09:18;;;;;;;296.40;152.00;;;;;;;0.98;80.25;94260.26;1801269;78;21266;-43
2022/12/22 05:11:45;;;;;;;274.30;145.45;;;;;;;1.06;80.41;94259.63;1804692;78;21199;-44
2022/12/22 05:14:12;;;;;;;294.05;154.60;;;;;;;1.15;80.49;94259.95;1793220;79;21488;-44
2022/12/22 05:16:39;;;;;;;270.77;141.90;;;;;;;1.23;80.38;94262.78;1805676;78;20965;-44
2022/12/22 05:19:06;;;;;;;274.92;142.47;;;;;;;1.31;80.15;94265.63;1788906;78;21516;-45
2022/12/22 05:21:33;;;;;;;312.50;174.90;;;;;;;1.32;80.11;94258.45;1761308;79;21165;-44
2022/12/22 05:23:59;;;;;;;299.65;160.45;;;;;;;1.39;80.52;94257.05;1800806;78;20958;-44
2022/12/22 05:26:26;;;;;;;286.80;162.15;;;;;;;1.48;80.30;94257.34;1794883;78;21486;-44
2022/12/22 05:28:53;;;;;;;302.40;169.28;;;;;;;1.59;80.37;94259.38;1810789;78;20946;-44
2022/12/22 05:31:21;;;;;;;317.02;165.47;;;;;;;1.67;80.18;94258.12;1790661;78;21486;-44
2022/12/22 05:33:48;;;;;;;357.25;191.55;;;;;;;1.70;79.63;94251.89;1793037;79;21166;-44
2022/12/22 05:36:16;;;;;;;276.55;142.35;;;;;;;1.71;79.59;94250.72;1791474;78;21057;-45
2022/12/22 05:38:46;;;;;;;269.50;142.98;;;;;;;1.70;79.32;94254.60;1781105;79;21628;-45
2022/12/22 05:41:12;;;;;;;268.65;146.05;;;;;;;1.72;79.31;94251.50;1783515;79;21013;-44
2022/12/22 05:43:39;;;;;;;255.32;134.60;;;;;;;1.72;79.35;94254.97;1783861;79;21159;-45
2022/12/22 05:46:09;;;;;;;241.35;131.25;;;;;;;1.71;79.17;94256.74;1782097;79;21588;-44
2022/12/22 05:48:36;;;;;;;261.98;140.45;;;;;;;1.65;79.18;94260.47;1808137;78;20930;-44
2022/12/22 05:51:03;;;;;;;267.48;142.80;;;;;;;1.66;79.31;94268.03;1795318;78;20939;-45
2022/12/22 05:53:31;;;;;;;259.62;138.40;;;;;;;1.64;79.35;94256.22;1805174;78;21045;-44
2022/12/22 05:55:57;;;;;;;269.05;141.12;;;;;;;1.62;79.47;94263.98;1781206;79;20990;-45
2022/12/22 05:58:24;;;;;;;309.98;155.93;;;;;;;1.68;79.77;94268.39;1788401;79;21150;-44
2022/12/22 06:00:57;;;;;;;315.18;156.50;;;;;;;1.78;80.16;94264.22;1799016;78;21016;-44
2022/12/22 06:03:25;;;;;;;303.95;155.43;;;;;;;1.90;79.81;94267.76;1788433;78;21139;-44
2022/12/22 06:05:52;;;;;;;338.85;168.50;;;;;;;1.97;79.65;94279.30;1804174;78;20954;-44
2022/12/22 06:08:19;;;;;;;359.40;172.82;;;;;;;2.02;79.30;94277.53;1796082;79;20950;-43
2022/12/22 06:10:46;;;;;;;346.07;173.82;;;;;;;2.03;79.31;94279.06;1818483;78;21159;-44
2022/12/22 06:13:12;;;;;;;426.07;215.47;;;;;;;2.07;79.41;94277.65;1789636;79;21131;-44
2022/12/22 06:15:39;;;;;;;318.00;164.30;;;;;;;2.07;79.02;94286.57;1806956;78;21038;-45
2022/12/22 06:18:06;;;;;;;259.20;137.75;;;;;;;2.05;79.06;94297.05;1793030;78;21055;-44
2022/12/22 06:20:33;;;;;;;264.08;132.67;;;;;;;2.00;78.96;94296.12;1806251;79;21005;-46
2022/12/22 06:23:00;;;;;;;285.10;145.80;;;;;;;1.95;79.26;94299.88;1770127;79;21146;-44
2022/12/22 06:25:27;;;;;;;363.87;187.57;;;;;;;1.97;79.53;94291.51;1795511;79;21061;-46
2022/12/22 06:27:55;;;;;;;398.25;202.80;;;;;;;2.07;79.79;94292.56;1788928;78;21034;-46
2022/12/22 06:30:23;;;;;;;336.20;174.23;;;;;;;2.15;79.60;94299.47;1774657;79;21096;-45
2022/12/22 06:32:50;;;;;;;317.85;168.02;;;;;;;2.20;79.58;94299.02;1768420;79;21625;-45
2022/12/22 06:35:17;;;;;;;323.85;165.75;;;;;;;2.22;79.27;94300.17;1778899;78;21522;-45
2022/12/22 06:37:44;;;;;;;241.93;130.10;;;;;;;2.24;79.43;94299.75;1747608;80;21181;-45
2022/12/22 06:40:12;;;;;;;228.12;126.92;;;;;;;2.26;79.22;94310.96;1747311;80;21024;-47
2022/12/22 06:45:32;;;;;;;310.90;165.30;;;;;;;2.17;79.43;94310.69;1708748;82;21151;-47
2022/12/22 06:48:04;;;;;;;410.60;220.20;;;;;;;2.20;79.34;94312.59;1757814;79;21053;-47
2022/12/22 06:50:31;;;;;;;405.22;210.08;;;;;;;2.22;79.89;94313.73;1758274;79;21001;-46
2022/12/22 06:52:58;;;;;;;546.53;297.82;;;;;;;2.36;79.93;94306.02;1753509;79;21013;-47
2022/12/22 06:55:25;;;;;;;405.85;219.35;;;;;;;2.45;79.93;94316.56;1774418;79;21055;-49
2022/12/22 06:57:53;;;;;;;460.23;251.70;;;;;;;2.55;79.84;94309.47;1781722;78;21088;-48
2022/12/22 07:00:21;;;;;;;493.90;269.37;;;;;;;2.66;79.81;94308.76;1773808;78;21171;-46
2022/12/22 07:02:48;;;;;;;515.40;282.05;;;;;;;2.75;79.49;94315.23;1768412;80;21054;-46
2022/12/22 07:05:16;;;;;;;487.60;272.73;;;;;;;2.87;79.58;94314.66;1772750;79;20922;-46
2022/12/22 07:07:43;;;;;;;471.68;259.92;;;;;;;3.00;79.26;94316.23;1768464;79;21479;-47
2022/12/22 07:10:10;;;;;;;366.50;195.97;;;;;;;3.04;78.69;94311.55;1797287;78;21687;-49
2022/12/22 07:12:38;;;;;;;286.57;164.45;;;;;;;3.01;78.53;94321.84;1776267;78;21160;-49
2022/12/22 07:15:07;;;;;;;291.77;165.15;;;;;;;3.01;78.52;94319.12;1783792;79;20966;-52
2022/12/22 07:17:35;;;;;;;350.60;190.97;;;;;;;3.02;78.28;94324.77;1782331;79;21554;-48
2022/12/22 07:20:07;;;;;;;330.77;187.97;;;;;;;3.01;78.29;94319.12;1769533;79;21057;-46
2022/12/22 07:22:35;;;;;;;401.33;223.15;;;;;;;3.10;78.38;94320.19;1776244;78;21128;-46
2022/12/22 07:25:02;;;;;;;393.93;218.12;;;;;;;3.15;77.94;94314.86;1770978;78;21295;-47
2022/12/22 07:27:29;;;;;;;434.33;247.67;;;;;;;3.17;78.34;94318.72;1783938;78;21538;-47
2022/12/22 07:29:57;;;;;;;453.60;261.50;;;;;;;3.31;78.28;94312.30;1776198;79;22012;-49
2022/12/22 07:32:24;;;;;;;424.23;245.63;;;;;;;3.37;78.17;94313.36;1767171;80;21596;-47
2022/12/22 07:34:51;;;;;;;435.17;249.73;;;;;;;3.48;78.33;94312.63;1779163;79;21021;-49
2022/12/22 07:37:18;;;;;;;440.68;255.07;;;;;;;3.62;78.18;94309.86;1770519;79;21138;-47
2022/12/22 07:39:45;;;;;;;417.83;238.15;;;;;;;3.75;77.99;94308.09;1767040;80;21683;-48
2022/12/22 07:44:58;;;;;;;361.18;204.43;;;;;;;3.96;76.93;94315.89;1760004;78;21587;-47
2022/12/22 07:47:25;;;;;;;379.90;214.90;;;;;;;3.94;76.79;94316.91;1781534;78;21084;-49
2022/12/22 07:52:48;;;;;;;383.15;208.25;;;;;;;3.95;76.44;94314.94;1790252;79;21281;-46
2022/12/22 07:55:15;;;;;;;370.42;211.70;;;;;;;3.98;76.58;94318.97;1776890;78;21080;-46
2022/12/22 07:57:42;;;;;;;398.90;227.32;;;;;;;4.10;76.63;94317.02;1769989;79;21152;-47
2022/12/22 08:00:12;;;;;;;376.27;215.12;;;;;;;4.22;76.76;94315.02;1750373;80;21075;-52
2022/12/22 08:02:41;;;;;;;420.62;244.05;;;;;;;4.39;76.60;94315.28;1752571;79;21285;-47
2022/12/22 08:05:08;;;;;;;400.55;230.98;;;;;;;4.51;76.44;94307.87;1756616;79;21120;-46
2022/12/22 08:07:36;;;;;;;434.52;261.00;;;;;;;4.67;76.35;94314.75;1768359;80;21095;-48
2022/12/22 08:10:05;;;;;;;447.07;272.33;;;;;;;4.76;75.93;94310.85;1772522;78;21053;-46
2022/12/22 08:12:32;;;;;;;479.75;296.70;;;;;;;4.88;75.89;94312.95;1764536;79;21029;-46
2022/12/22 08:14:59;;;;;;;453.50;278.62;;;;;;;4.90;75.49;94298.30;1747024;79;21544;-45
2022/12/22 08:17:27;;;;;;;372.23;216.23;;;;;;;4.91;75.52;94297.11;1740155;80;21060;-46
2022/12/22 08:19:54;;;;;;;357.02;210.23;;;;;;;5.03;75.74;94289.66;1780042;79;21057;-50
2022/12/22 08:22:22;;;;;;;341.73;209.85;;;;;;;5.16;75.46;94290.52;1739289;80;21119;-49
2022/12/22 08:24:52;;;;;;;380.18;225.55;;;;;;;5.25;75.01;94292.08;1722820;80;21080;-47
2022/12/22 08:27:27;;;;;;;372.17;229.75;;;;;;;5.23;74.57;94296.58;1715121;80;21502;-46
2022/12/22 08:29:57;;;;;;;342.40;214.93;;;;;;;5.11;74.70;94299.20;1681286;83;21167;-49
2022/12/22 08:32:25;;;;;;;420.18;261.80;;;;;;;5.03;74.79;94291.61;1631619;86;21121;-49
2022/12/22 08:34:52;;;;;;;432.45;266.55;;;;;;;4.92;75.18;94290.47;1610539;85;21238;-47
2022/12/22 08:37:39;;;;;;;433.65;265.80;;;;;;;4.99;75.73;94287.58;1661418;82;21302;-51
2022/12/22 08:40:22;;;;;;;361.30;211.25;;;;;;;5.09;75.66;94285.23;1685060;82;21215;-49
2022/12/22 08:42:52;;;;;;;289.77;177.32;;;;;;;5.18;75.58;94287.38;1672510;84;21022;-50
2022/12/22 08:45:19;;;;;;;270.82;157.75;;;;;;;5.23;75.73;94289.77;1656921;84;21156;-49
2022/12/22 08:47:46;;;;;;;249.10;146.65;;;;;;;5.37;75.68;94283.22;1663054;83;21150;-50
2022/12/22 08:50:15;;;;;;;270.55;165.10;;;;;;;5.49;75.45;94278.46;1656769;83;22228;-50
2022/12/22 08:52:43;;;;;;;314.35;188.70;;;;;;;5.69;75.33;94268.23;1655647;83;21241;-48
2022/12/22 08:55:13;;;;;;;378.02;215.57;;;;;;;5.85;75.05;94262.79;1648710;83;21116;-50
2022/12/22 08:58:01;;;;;;;373.95;218.55;;;;;;;6.04;74.73;94257.81;1671980;82;22118;-50
2022/12/22 09:00:38;;;;;;;331.47;197.15;;;;;;;6.21;74.14;94252.48;1656539;84;21789;-54
2022/12/22 09:03:06;;;;;;;372.33;219.62;;;;;;;6.37;73.42;94251.08;1620114;85;21108;-52
2022/12/22 09:05:40;;;;;;;319.87;193.20;;;;;;;6.43;72.96;94261.63;1639627;84;21208;-49
2022/12/22 09:08:19;;;;;;;304.10;187.20;;;;;;;6.45;72.52;94253.77;1690093;83;21072;-50
2022/12/22 09:10:58;;;;;;;335.27;212.80;;;;;;;6.42;72.45;94249.17;1650426;84;21175;-55
2022/12/22 09:13:34;;;;;;;375.00;231.30;;;;;;;6.42;72.45;94253.27;1564285;89;21142;-48
2022/12/22 09:16:07;;;;;;;367.87;226.42;;;;;;;6.45;72.42;94241.47;1579070;89;21162;-49
2022/12/22 09:18:35;;;;;;;340.80;213.82;;;;;;;6.51;72.50;94240.52;1537070;91;22291;-48
2022/12/22 09:21:02;;;;;;;368.52;228.35;;;;;;;6.64;72.48;94241.31;1528214;90;21040;-51
2022/12/22 09:23:32;;;;;;;356.55;218.63;;;;;;;6.79;72.24;94238.94;1525368;91;21123;-49
2022/12/22 09:26:05;;;;;;;366.40;227.45;;;;;;;6.94;72.06;94235.95;1543070;90;21097;-49
2022/12/22 09:28:35;;;;;;;347.10;215.22;;;;;;;7.02;71.72;94229.84;1586979;87;21152;-48
2022/12/22 09:31:06;;;;;;;300.77;183.37;;;;;;;7.06;71.71;94237.94;1588756;88;21500;-46
2022/12/22 09:33:36;;;;;;;227.97;135.68;;;;;;;7.13;71.79;94231.05;1537237;91;21915;-48
2022/12/22 09:36:11;;;;;;;193.20;123.25;;;;;;;7.28;71.53;94221.79;1564291;89;21051;-48
2022/12/22 09:38:39;;;;;;;207.50;119.25;;;;;;;7.39;71.26;94216.17;1589327;88;21195;-49
2022/12/22 09:41:36;;;;;;;204.10;111.45;;;;;;;7.53;71.08;94215.70;1580274;88;21137;-49
2022/12/22 09:44:05;;;;;;;217.37;129.40;;;;;;;7.68;70.94;94216.77;1594791;87;21316;-47
2022/12/22 09:46:35;;;;;;;193.10;115.52;;;;;;;7.85;70.46;94205.84;1585490;88;21097;-50
2022/12/22 09:49:04;;;;;;;267.40;162.00;;;;;;;7.89;69.97;94207.84;1545176;90;21133;-50
2022/12/22 09:51:35;;;;;;;279.13;166.80;;;;;;;7.88;69.69;94206.31;1533382;92;22440;-56
2022/12/22 09:54:03;;;;;;;240.35;148.28;;;;;;;7.91;69.57;94205.42;1535095;90;21663;-54
2022/12/22 09:56:32;;;;;;;239.80;147.68;;;;;;;7.96;69.33;94196.67;1564458;89;21286;-47
2022/12/22 09:58:59;;;;;;;269.00;164.05;;;;;;;8.05;69.35;94191.88;1537031;91;21593;-48
2022/12/22 10:02:06;;;;;;;230.72;139.82;;;;;;;8.14;69.40;94183.13;1534953;90;21834;-51
2022/12/22 10:05:00;;;;;;;224.20;135.63;;;;;;;8.23;68.87;94180.47;1571875;89;21090;-47
2022/12/22 10:07:41;;;;;;;223.90;133.97;;;;;;;8.29;68.47;94183.41;1572195;88;21244;-50
2022/12/22 10:10:26;;;;;;;210.13;129.12;;;;;;;8.38;68.12;94181.50;1572582;89;21561;-51
2022/12/22 10:12:55;;;;;;;192.22;119.02;;;;;;;8.51;67.87;94178.69;1517392;91;21209;-51
2022/12/22 10:15:22;;;;;;;233.65;138.82;;;;;;;8.63;67.53;94177.23;1518673;91;22528;-49
2022/12/22 10:17:51;;;;;;;238.85;142.03;;;;;;;8.66;67.24;94177.70;1558218;89;21125;-51
2022/12/22 10:20:25;;;;;;;249.90;144.87;;;;;;;8.64;67.18;94169.16;1574577;88;21112;-49
2022/12/22 10:22:59;;;;;;;244.28;143.87;;;;;;;8.60;67.08;94158.94;1599085;88;21825;-52
2022/12/22 10:25:33;;;;;;;222.65;134.27;;;;;;;8.56;67.26;94159.69;1618986;88;21057;-50
2022/12/22 10:28:06;;;;;;;205.10;124.07;;;;;;;8.60;67.25;94159.56;1615119;87;21096;-48
2022/12/22 10:30:36;;;;;;;202.85;124.10;;;;;;;8.62;67.13;94161.25;1524392;92;21154;-48
2022/12/22 10:33:21;;;;;;;184.13;117.65;;;;;;;8.64;67.35;94155.45;1537525;89;21090;-50
2022/12/22 10:35:57;;;;;;;167.37;104.47;;;;;;;8.75;67.25;94153.09;1528519;91;22197;-49
2022/12/22 10:38:40;;;;;;;157.22;98.82;;;;;;;8.86;66.94;94145.23;1535439;90;21161;-51
2022/12/22 10:41:15;;;;;;;164.52;99.35;;;;;;;8.91;66.73;94148.13;1523249;91;21128;-52
2022/12/22 10:43:50;;;;;;;153.65;97.42;;;;;;;9.02;66.56;94140.27;1541903;90;21228;-51
2022/12/22 10:46:19;;;;;;;126.75;82.22;;;;;;;9.27;66.25;94144.78;1512803;90;21575;-49
2022/12/22 10:48:46;;;;;;;120.90;80.17;;;;;;;9.56;65.72;94137.68;1458342;95;21773;-49
2022/12/22 10:51:14;;;;;;;124.90;81.55;;;;;;;9.83;65.01;94130.09;1474513;94;21110;-52
2022/12/22 10:53:52;;;;;;;145.25;93.82;;;;;;;10.01;64.30;94132.84;1485448;94;21115;-49
2022/12/22 10:56:28;;;;;;;141.55;87.85;;;;;;;10.22;63.72;94127.83;1547084;91;21169;-50
2022/12/22 10:59:17;;;;;;;134.30;85.45;;;;;;;10.67;63.36;94116.73;1517712;92;21161;-46
2022/12/22 11:01:50;;;;;;;170.05;97.30;;;;;;;11.21;61.75;94116.69;1510964;93;21614;-48
2022/12/22 11:04:25;;;;;;;163.22;97.17;;;;;;;11.53;60.87;94111.78;1472989;93;21039;-50
2022/12/22 11:06:56;;;;;;;172.37;105.20;;;;;;;11.86;60.70;94113.90;1523486;92;21268;-51
2022/12/22 11:09:25;;;;;;;172.65;103.85;;;;;;;12.28;59.96;94110.34;1504282;93;21707;-47
2022/12/22 11:11:56;;;;;;;111.60;68.50;;;;;;;12.74;58.82;94109.42;1512695;93;21435;-48
2022/12/22 11:14:49;;;;;;;75.15;46.77;;;;;;;13.31;57.75;94108.50;1467318;96;21151;-49
2022/12/22 11:17:45;;;;;;;62.85;39.18;;;;;;;13.94;56.20;94103.47;1455094;95;21194;-47
2022/12/22 11:20:33;;;;;;;45.85;30.48;;;;;;;14.14;54.83;94093.17;1394422;100;21161;-51
2022/12/22 11:23:23;;;;;;;28.65;20.57;;;;;;;14.33;54.22;94089.52;1407151;99;21134;-47
2022/12/22 11:26:19;;;;;;;47.65;30.95;;;;;;;14.42;53.30;94078.28;1409511;100;21187;-46
2022/12/22 11:28:55;;;;;;;69.62;47.48;;;;;;;14.46;52.63;94085.87;1437986;97;21471;-53
2022/12/22 11:32:06;;;;;;;70.97;47.08;;;;;;;14.50;51.96;94081.52;1443030;97;21175;-49
2022/12/22 11:35:09;;;;;;;61.58;38.38;;;;;;;14.60;51.94;94074.59;1393729;100;21691;-45
2022/12/22 11:37:47;;;;;;;47.88;31.02;;;;;;;14.83;51.08;94074.28;1376037;102;21245;-49
2022/12/22 11:40:31;;;;;;;45.55;29.07;;;;;;;15.26;50.19;94070.36;1392741;101;21176;-48
2022/12/22 11:43:24;;;;;;;44.60;27.58;;;;;;;15.95;49.37;94070.41;1396457;100;21646;-47
2022/12/22 11:46:07;;;;;;;46.05;27.17;;;;;;;16.74;47.70;94066.14;1392939;99;21698;-50
2022/12/22 11:49:14;;;;;;;37.53;24.67;;;;;;;16.76;46.57;94070.56;1387500;101;21289;-49
2022/12/22 11:52:18;;;;;;;55.63;37.25;;;;;;;16.25;46.70;94066.00;1389311;101;21129;-46
2022/12/22 11:55:21;;;;;;;82.57;50.35;;;;;;;15.49;47.53;94069.28;1411073;99;21106;-46
2022/12/22 11:58:22;;;;;;;70.15;41.65;;;;;;;14.62;48.94;94067.30;1418321;99;21780;-47
2022/12/22 12:01:11;;;;;;;58.68;35.63;;;;;;;13.83;50.25;94068.78;1481046;95;21234;-46
2022/12/22 12:03:50;;;;;;;55.23;35.55;;;;;;;13.11;51.83;94067.02;1443856;97;21274;-47
2022/12/22 12:06:33;;;;;;;46.05;29.35;;;;;;;12.65;53.03;94065.38;1505788;93;21148;-46
2022/12/22 12:09:35;;;;;;;46.65;30.20;;;;;;;12.33;53.97;94066.17;1488012;95;21269;-52
2022/12/22 12:12:50;;;;;;;56.37;34.73;;;;;;;12.02;54.97;94055.58;1523045;92;21282;-47
2022/12/22 12:15:58;;;;;;;65.50;34.70;;;;;;;11.82;55.99;94062.94;1615825;87;21140;-48
2022/12/22 12:19:17;;;;;;;54.93;33.33;;;;;;;11.60;56.69;94052.85;1606221;86;21058;-45
2022/12/22 12:22:11;;;;;;;48.05;29.48;;;;;;;11.45;57.20;94052.00;1619517;87;21096;-49
2022/12/22 12:25:00;;;;;;;34.98;22.27;;;;;;;11.27;57.75;94050.14;1606827;87;21115;-49
2022/12/22 12:28:02;;;;;;;33.28;21.50;;;;;;;11.03;58.13;94047.98;1581947;88;22483;-47
2022/12/22 12:30:36;;;;;;;40.08;25.72;;;;;;;10.86;58.83;94052.95;1626992;86;21202;-47
2022/12/22 12:33:21;;;;;;;38.80;23.40;;;;;;;10.59;59.58;94048.94;1655118;80;21005;-48
2022/12/22 12:36:00;;;;;;;32.78;21.12;;;;;;;10.43;60.12;94037.52;1746772;79;21128;-45
2022/12/22 12:39:02;;;;;;;42.23;26.85;;;;;;;10.28;60.72;94027.02;1748107;80;21217;-45
2022/12/22 12:41:57;;;;;;;35.88;23.95;;;;;;;10.15;61.24;94034.70;1709948;81;21531;-46
2022/12/22 12:44:34;;;;;;;56.90;35.17;;;;;;;9.99;62.14;94029.50;1693853;82;21064;-46
2022/12/22 12:47:30;;;;;;;55.75;32.83;;;;;;;9.83;62.68;94040.81;1707669;81;21092;-46
2022/12/22 12:50:24;;;;;;;55.75;30.25;;;;;;;9.75;63.17;94034.86;1638780;86;21681;-46
2022/12/22 12:53:07;;;;;;;49.42;29.82;;;;;;;9.67;63.69;94038.38;1612616;87;21650;-45
2022/12/22 12:55:44;;;;;;;88.65;42.98;;;;;;;9.65;64.03;94040.81;1599423;87;21297;-49
2022/12/22 12:58:11;;;;;;;126.75;62.30;;;;;;;9.66;64.18;94043.72;1582091;87;21032;-45
2022/12/22 13:00:41;;;;;;;122.10;57.80;;;;;;;9.70;64.12;94044.31;1596826;87;21068;-46
2022/12/22 13:03:11;;;;;;;120.13;60.60;;;;;;;9.69;64.02;94044.16;1588436;87;21088;-47
2022/12/22 13:05:56;;;;;;;83.42;46.25;;;;;;;9.65;64.17;94034.70;1605680;87;21113;-45
2022/12/22 13:09:04;;;;;;;114.80;59.00;;;;;;;9.62;64.38;94036.24;1611068;88;21808;-47
2022/12/22 13:11:37;;;;;;;127.78;66.77;;;;;;;9.54;64.57;94038.53;1547520;89;21079;-47
2022/12/22 13:14:04;;;;;;;122.42;67.27;;;;;;;9.50;64.87;94042.64;1535860;91;21205;-44
2022/12/22 13:16:38;;;;;;;107.97;63.75;;;;;;;9.45;65.14;94031.64;1549034;89;21585;-50
2022/12/22 13:19:15;;;;;;;104.38;62.30;;;;;;;9.41;65.21;94028.30;1566366;88;21402;-46
2022/12/22 13:21:44;;;;;;;96.72;57.00;;;;;;;9.37;65.42;94024.16;1593065;88;22024;-46
2022/12/22 13:24:20;;;;;;;96.92;57.20;;;;;;;9.37;65.63;94022.80;1544189;90;21163;-45
2022/12/22 13:26:49;;;;;;;113.20;63.13;;;;;;;9.38;65.69;94027.06;1551974;88;21152;-44
2022/12/22 13:29:37;;;;;;;77.55;41.83;;;;;;;9.37;65.86;94026.31;1563666;89;21073;-45
2022/12/22 13:32:24;;;;;;;161.57;87.10;;;;;;;9.32;65.82;94028.89;1528795;89;21142;-44
2022/12/22 13:35:05;;;;;;;143.52;76.35;;;;;;;9.22;66.17;94024.01;1550225;89;21170;-47
2022/12/22 13:37:40;;;;;;;123.35;67.78;;;;;;;9.24;66.38;94020.81;1629548;84;21022;-47
2022/12/22 13:40:18;;;;;;;107.05;56.37;;;;;;;9.26;66.27;94019.75;1674459;84;21197;-44
2022/12/22 13:42:54;;;;;;;112.37;59.45;;;;;;;9.26;66.39;94019.75;1684596;83;21655;-45
2022/12/22 13:45:33;;;;;;;78.97;45.67;;;;;;;9.30;66.53;94021.14;1641625;85;21136;-45
2022/12/22 13:48:03;;;;;;;77.95;46.37;;;;;;;9.36;66.50;94024.02;1708287;80;21781;-49
2022/12/22 13:50:37;;;;;;;108.27;60.15;;;;;;;9.30;66.56;94028.59;1743058;80;21110;-45
2022/12/22 13:53:07;;;;;;;93.75;54.75;;;;;;;9.17;66.74;94019.13;1661249;84;21143;-47
2022/12/22 13:55:35;;;;;;;101.97;56.00;;;;;;;9.10;67.05;94020.78;1678852;84;21112;-46
2022/12/22 13:58:26;;;;;;;113.70;60.30;;;;;;;9.08;67.08;94018.35;1667884;83;21136;-46
2022/12/22 14:01:13;;;;;;;113.25;64.80;;;;;;;9.03;67.25;94014.84;1679163;83;21167;-47
2022/12/22 14:03:55;;;;;;;146.07;82.72;;;;;;;8.98;67.33;94004.45;1690256;83;21009;-45
2022/12/22 14:06:35;;;;;;;167.47;92.25;;;;;;;8.92;67.51;94005.66;1686008;83;21061;-45
2022/12/22 14:09:15;;;;;;;185.30;96.47;;;;;;;8.84;67.57;94009.76;1603544;87;21045;-46
2022/12/22 14:11:45;;;;;;;165.80;91.05;;;;;;;8.71;68.01;94010.48;1622068;85;21116;-44
2022/12/22 14:14:20;;;;;;;167.80;94.92;;;;;;;8.65;68.16;94024.02;1607032;87;21449;-53
2022/12/22 14:16:49;;;;;;;160.43;92.90;;;;;;;8.57;68.35;94020.03;1522124;93;22049;-48
2022/12/22 14:19:18;;;;;;;181.95;100.25;;;;;;;8.49;68.52;94022.13;1502327;93;21161;-47
2022/12/22 14:21:49;;;;;;;166.12;98.40;;;;;;;8.35;68.72;94026.19;1516976;92;21667;-48
2022/12/22 14:24:24;;;;;;;152.25;89.67;;;;;;;8.19;69.27;94015.45;1518525;92;21239;-45
2022/12/22 14:26:53;;;;;;;120.40;69.25;;;;;;;8.06;69.57;94022.95;1520351;92;21983;-46
2022/12/22 14:29:24;;;;;;;113.08;64.77;;;;;;;7.96;69.99;94015.91;1519971;92;21830;-46
2022/12/22 14:31:54;;;;;;;165.77;94.32;;;;;;;7.91;70.63;94015.11;1518843;91;21144;-48
2022/12/22 14:34:30;;;;;;;180.27;101.72;;;;;;;7.79;70.88;94014.59;1524651;91;21144;-47
2022/12/22 14:36:57;;;;;;;140.68;82.37;;;;;;;7.73;71.34;94020.46;1484169;94;21286;-46
2022/12/22 14:39:31;;;;;;;128.10;74.10;;;;;;;7.66;71.23;94020.73;1481482;95;21145;-45
2022/12/22 14:42:03;;;;;;;161.45;90.90;;;;;;;7.54;71.26;94026.27;1456961;96;21763;-46
2022/12/22 14:44:37;;;;;;;177.32;99.55;;;;;;;7.49;71.96;94037.17;1447089;97;21596;-46
2022/12/22 14:47:18;;;;;;;175.95;97.00;;;;;;;7.45;71.94;94031.06;1466808;95;21672;-46
2022/12/22 14:50:01;;;;;;;146.98;81.25;;;;;;;7.39;72.03;94031.48;1477031;93;21144;-46
2022/12/22 14:52:45;;;;;;;194.20;110.92;;;;;;;7.32;72.20;94025.49;1475452;94;21159;-46
2022/12/22 14:55:32;;;;;;;258.38;135.37;;;;;;;7.22;72.36;94026.02;1491602;94;21109;-45
2022/12/22 14:58:16;;;;;;;211.68;110.32;;;;;;;7.12;73.28;94024.39;1493877;93;21167;-45
2022/12/22 15:00:47;;;;;;;203.95;109.30;;;;;;;7.08;73.28;94014.18;1473691;94;21165;-45
2022/12/22 15:03:34;;;;;;;214.53;114.70;;;;;;;6.94;73.07;94020.73;1469838;95;21179;-45
2022/12/22 15:06:30;;;;;;;165.40;94.52;;;;;;;6.84;73.46;94038.24;1460750;96;21486;-46
2022/12/22 15:09:15;;;;;;;200.10;109.67;;;;;;;6.75;73.65;94030.55;1495699;92;21578;-47
2022/12/22 15:11:46;;;;;;;284.83;151.53;;;;;;;6.70;74.32;94033.84;1493733;93;21169;-46
2022/12/22 15:14:16;;;;;;;242.93;130.60;;;;;;;6.71;74.37;94036.73;1587308;85;21166;-45
2022/12/22 15:16:44;;;;;;;187.32;102.40;;;;;;;6.73;74.18;94037.81;1603941;85;21044;-46
2022/12/22 15:19:17;;;;;;;237.32;127.95;;;;;;;6.70;73.57;94036.58;1620417;86;21155;-45
2022/12/22 15:21:44;;;;;;;215.60;122.67;;;;;;;6.64;74.12;94040.45;1635479;84;21172;-46
2022/12/22 15:24:12;;;;;;;180.80;101.47;;;;;;;6.62;74.37;94053.02;1621635;87;21077;-45
2022/12/22 15:26:39;;;;;;;149.80;83.72;;;;;;;6.61;74.43;94048.76;1579150;86;21182;-46
2022/12/22 15:29:06;;;;;;;149.07;86.15;;;;;;;6.54;74.63;94053.84;1653256;85;21671;-49
2022/12/22 15:31:34;;;;;;;159.10;88.92;;;;;;;6.49;74.76;94053.64;1641867;84;21166;-45
2022/12/22 15:34:06;;;;;;;134.12;79.12;;;;;;;6.46;74.94;94057.23;1631894;84;21102;-44
2022/12/22 15:36:33;;;;;;;145.82;83.20;;;;;;;6.34;74.91;94060.73;1640079;87;21065;-45
2022/12/22 15:39:00;;;;;;;139.35;80.42;;;;;;;6.27;75.69;94056.84;1582923;87;21135;-45
2022/12/22 15:41:27;;;;;;;159.20;89.50;;;;;;;6.29;75.92;94050.34;1626577;87;21048;-45
2022/12/22 15:43:54;;;;;;;172.43;100.87;;;;;;;6.31;75.79;94058.88;1627300;86;21183;-44
2022/12/22 15:46:20;;;;;;;204.47;118.70;;;;;;;6.28;76.13;94055.05;1641338;85;21118;-45
2022/12/22 15:48:47;;;;;;;228.42;137.65;;;;;;;6.33;76.29;94057.84;1640424;84;21054;-45
2022/12/22 15:51:24;;;;;;;235.78;130.87;;;;;;;6.35;75.94;94065.00;1652957;84;21159;-47
2022/12/22 15:53:54;;;;;;;305.40;158.52;;;;;;;6.36;75.95;94062.43;1576462;87;21113;-47
2022/12/22 15:56:23;;;;;;;280.92;148.10;;;;;;;6.31;75.70;94060.25;1645440;85;21131;-46
2022/12/22 15:58:50;;;;;;;256.98;137.65;;;;;;;6.31;76.04;94064.34;1651954;85;21618;-44
2022/12/22 16:01:17;;;;;;;187.20;100.92;;;;;;;6.32;75.69;94063.89;1665030;84;22331;-45
2022/12/22 16:03:45;;;;;;;147.32;87.15;;;;;;;6.30;75.42;94073.13;1669244;85;21098;-45
2022/12/22 16:06:16;;;;;;;139.77;83.65;;;;;;;6.24;75.73;94068.64;1655346;84;20989;-47
2022/12/22 16:08:48;;;;;;;124.15;77.72;;;;;;;6.23;75.95;94068.48;1635487;86;21831;-44
2022/12/22 16:11:15;;;;;;;125.53;75.32;;;;;;;6.26;76.22;94077.16;1648751;85;21076;-44
2022/12/22 16:13:43;;;;;;;122.60;72.08;;;;;;;6.30;76.28;94073.75;1610520;86;21001;-46
2022/12/22 16:16:11;;;;;;;159.55;90.03;;;;;;;6.31;76.07;94065.09;1660986;85;21139;-45
2022/12/22 16:18:38;;;;;;;141.50;82.55;;;;;;;6.30;76.38;94072.38;1656237;86;21018;-46
2022/12/22 16:21:15;;;;;;;176.15;101.85;;;;;;;6.34;76.82;94065.59;1739604;82;21499;-45
2022/12/22 16:23:43;;;;;;;286.60;155.57;;;;;;;6.35;76.20;94067.73;1591610;88;21139;-45
2022/12/22 16:26:14;;;;;;;287.57;155.50;;;;;;;6.19;76.06;94065.09;1647638;86;21123;-44
2022/12/22 16:28:43;;;;;;;297.52;163.45;;;;;;;6.12;76.37;94061.22;1582897;88;21096;-45
2022/12/22 16:31:19;;;;;;;266.12;147.65;;;;;;;6.07;76.67;94063.87;1620361;86;21503;-44
2022/12/22 16:33:46;;;;;;;257.18;146.40;;;;;;;6.06;76.86;94060.98;1607309;87;21194;-46
2022/12/22 16:36:13;;;;;;;295.67;160.85;;;;;;;6.08;76.93;94062.67;1600956;88;21069;-45
2022/12/22 16:38:40;;;;;;;289.15;152.80;;;;;;;6.05;76.78;94058.09;1684823;83;21163;-44
2022/12/22 16:41:17;;;;;;;248.35;142.68;;;;;;;6.04;76.87;94054.42;1625289;85;21527;-46
2022/12/22 16:43:44;;;;;;;228.37;129.55;;;;;;;6.03;76.66;94059.12;1561829;90;21138;-47
2022/12/22 16:46:17;;;;;;;211.85;120.33;;;;;;;5.95;76.46;94057.78;1547757;91;21182;-44
2022/12/22 16:48:49;;;;;;;240.80;131.95;;;;;;;5.88;76.54;94062.09;1547540;91;21191;-44
2022/12/22 16:51:25;;;;;;;239.05;132.43;;;;;;;5.82;76.74;94053.51;1546356;91;21187;-45
2022/12/22 16:53:53;;;;;;;238.87;134.63;;;;;;;5.78;77.10;94056.33;1543155;91;21267;-45
2022/12/22 16:56:25;;;;;;;226.47;128.27;;;;;;;5.77;77.54;94049.92;1567040;90;21154;-45